createdAt,value
2022-11-26T00:00:30.980Z,6.22
2022-11-26T00:02:57.244Z,7.00
2022-11-26T00:05:23.453Z,6.18
2022-11-26T00:07:49.715Z,7.30
2022-11-26T00:10:15.892Z,7.32
2022-11-26T00:12:42.097Z,6.90
2022-11-26T00:15:08.284Z,6.20
2022-11-26T00:17:34.433Z,6.88
2022-11-26T00:20:00.599Z,7.10
2022-11-26T00:22:26.757Z,7.43
2022-11-26T00:24:52.881Z,6.47
2022-11-26T00:27:19.033Z,5.93
2022-11-26T00:29:48.250Z,5.15
2022-11-26T00:32:14.468Z,5.20
2022-11-26T00:34:40.708Z,5.57
2022-11-26T00:37:06.896Z,6.20
2022-11-26T00:39:33.032Z,5.47
2022-11-26T00:41:59.231Z,5.68
2022-11-26T00:44:25.442Z,5.82
2022-11-26T00:46:51.583Z,5.35
2022-11-26T00:49:17.755Z,5.72
2022-11-26T00:51:43.919Z,5.10
2022-11-26T00:54:10.076Z,4.75
2022-11-26T00:56:38.109Z,6.47
2022-11-26T00:59:04.517Z,6.03
2022-11-26T01:01:30.749Z,6.13
2022-11-26T01:03:56.981Z,6.05
2022-11-26T01:06:23.165Z,7.30
2022-11-26T01:08:49.358Z,6.97
2022-11-26T01:11:15.522Z,7.00
2022-11-26T01:13:41.663Z,6.90
2022-11-26T01:16:07.861Z,6.93
2022-11-26T01:18:34.048Z,6.97
2022-11-26T01:21:00.223Z,7.05
2022-11-26T01:23:26.406Z,6.47
2022-11-26T01:25:52.562Z,6.38
2022-11-26T01:28:18.748Z,6.88
2022-11-26T01:30:44.930Z,6.35
2022-11-26T01:33:11.115Z,6.43
2022-11-26T01:35:37.254Z,7.30
2022-11-26T01:38:03.439Z,6.22
2022-11-26T01:40:29.604Z,5.90
2022-11-26T01:42:55.777Z,6.70
2022-11-26T01:45:21.933Z,7.15
2022-11-26T01:47:48.104Z,6.43
2022-11-26T01:50:14.288Z,6.10
2022-11-26T01:52:40.397Z,6.72
2022-11-26T01:55:06.525Z,5.90
2022-11-26T01:57:32.694Z,7.13
2022-11-26T01:59:58.869Z,6.60
2022-11-26T02:02:25.093Z,7.15
2022-11-26T02:04:51.325Z,6.57
2022-11-26T02:07:17.477Z,7.20
2022-11-26T02:09:43.688Z,6.50
2022-11-26T02:12:09.794Z,6.82
2022-11-26T02:14:36.183Z,6.65
2022-11-26T02:17:02.649Z,6.70
2022-11-26T02:19:28.796Z,6.07
2022-11-26T02:21:54.957Z,7.45
2022-11-26T02:24:21.136Z,7.93
2022-11-26T02:26:47.336Z,6.75
2022-11-26T02:29:13.453Z,7.18
2022-11-26T02:31:39.914Z,5.97
2022-11-26T02:34:06.043Z,6.68
2022-11-26T02:36:32.147Z,7.28
2022-11-26T02:38:58.267Z,7.07
2022-11-26T02:41:24.426Z,7.00
2022-11-26T02:43:50.592Z,6.90
2022-11-26T02:46:16.894Z,7.95
2022-11-26T02:48:43.145Z,7.95
2022-11-26T02:51:09.254Z,7.70
2022-11-26T02:53:35.369Z,8.65
2022-11-26T02:56:01.534Z,8.65
2022-11-26T02:58:27.647Z,7.57
2022-11-26T03:00:53.884Z,7.05
2022-11-26T03:03:20.068Z,7.30
2022-11-26T03:05:46.232Z,8.25
2022-11-26T03:08:12.383Z,8.68
2022-11-26T03:10:38.543Z,7.22
2022-11-26T03:13:04.677Z,8.75
2022-11-26T03:15:30.853Z,7.32
2022-11-26T03:17:57.014Z,7.90
2022-11-26T03:20:23.137Z,7.55
2022-11-26T03:22:49.304Z,7.47
2022-11-26T03:25:15.480Z,7.63
2022-11-26T03:27:41.604Z,7.25
2022-11-26T03:30:07.777Z,7.05
2022-11-26T03:32:33.960Z,7.45
2022-11-26T03:35:00.158Z,9.65
2022-11-26T03:37:26.332Z,7.05
2022-11-26T03:39:52.480Z,7.43
2022-11-26T03:42:18.620Z,7.53
2022-11-26T03:44:44.809Z,6.93
2022-11-26T03:47:10.924Z,6.60
2022-11-26T03:49:37.058Z,6.65
2022-11-26T03:52:03.214Z,7.30
2022-11-26T03:54:29.375Z,7.28
2022-11-26T03:56:55.545Z,6.82
2022-11-26T03:59:21.696Z,7.43
2022-11-26T04:01:47.865Z,6.70
2022-11-26T04:04:14.048Z,6.60
2022-11-26T04:06:40.216Z,6.95
2022-11-26T04:09:06.339Z,6.25
2022-11-26T04:11:32.495Z,6.18
2022-11-26T04:13:58.668Z,5.60
2022-11-26T04:16:24.827Z,5.85
2022-11-26T04:18:50.983Z,6.45
2022-11-26T04:21:17.088Z,5.95
2022-11-26T04:23:43.229Z,6.43
2022-11-26T04:26:09.337Z,5.97
2022-11-26T04:28:35.442Z,6.35
2022-11-26T04:31:01.592Z,5.82
2022-11-26T04:33:27.752Z,6.03
2022-11-26T04:35:53.912Z,6.32
2022-11-26T04:38:25.349Z,6.13
2022-11-26T04:40:51.987Z,5.85
2022-11-26T04:43:18.102Z,5.38
2022-11-26T04:45:44.288Z,5.88
2022-11-26T04:48:10.491Z,5.35
2022-11-26T04:50:36.783Z,5.57
2022-11-26T04:53:02.966Z,5.18
2022-11-26T04:55:29.095Z,5.68
2022-11-26T04:57:55.282Z,4.70
2022-11-26T05:00:21.446Z,6.22
2022-11-26T05:02:47.664Z,5.40
2022-11-26T05:05:13.810Z,5.93
2022-11-26T05:07:39.975Z,4.80
2022-11-26T05:10:06.163Z,5.53
2022-11-26T05:12:32.328Z,5.03
2022-11-26T05:14:58.474Z,5.38
2022-11-26T05:17:24.660Z,4.90
2022-11-26T05:19:50.837Z,4.60
2022-11-26T05:22:16.971Z,5.95
2022-11-26T05:24:43.176Z,5.53
2022-11-26T05:27:09.307Z,4.40
2022-11-26T05:29:35.486Z,5.57
2022-11-26T05:32:01.771Z,4.57
2022-11-26T05:34:27.990Z,4.88
2022-11-26T05:36:54.103Z,5.00
2022-11-26T05:39:20.237Z,5.07
2022-11-26T05:41:46.397Z,5.05
2022-11-26T05:44:12.568Z,4.45
2022-11-26T05:46:38.732Z,4.75
2022-11-26T05:49:04.893Z,4.93
2022-11-26T05:51:31.101Z,5.40
2022-11-26T05:53:57.223Z,5.00
2022-11-26T05:56:23.344Z,5.03
2022-11-26T05:58:49.466Z,4.90
2022-11-26T06:01:15.643Z,4.65
2022-11-26T06:03:41.909Z,5.30
2022-11-26T06:06:08.221Z,4.70
2022-11-26T06:08:34.388Z,5.38
2022-11-26T06:11:00.514Z,4.45
2022-11-26T06:13:26.657Z,4.43
2022-11-26T06:15:52.779Z,4.75
2022-11-26T06:18:18.922Z,4.93
2022-11-26T06:20:45.086Z,4.25
2022-11-26T06:23:11.278Z,5.05
2022-11-26T06:25:37.451Z,4.63
2022-11-26T06:28:03.587Z,5.43
2022-11-26T06:30:29.762Z,5.25
2022-11-26T06:32:55.933Z,5.65
2022-11-26T06:35:22.106Z,5.25
2022-11-26T06:37:48.252Z,4.47
2022-11-26T06:40:14.387Z,5.22
2022-11-26T06:42:40.557Z,5.20
2022-11-26T06:45:06.701Z,6.00
2022-11-26T06:47:32.840Z,6.13
2022-11-26T06:49:58.992Z,5.80
2022-11-26T06:52:25.160Z,6.70
2022-11-26T06:54:51.364Z,5.22
2022-11-26T06:57:17.544Z,6.57
2022-11-26T06:59:43.847Z,6.05
2022-11-26T07:02:10.072Z,6.30
2022-11-26T07:04:36.398Z,6.05
2022-11-26T07:07:02.793Z,6.75
2022-11-26T07:09:28.958Z,6.53
2022-11-26T07:11:55.122Z,9.25
2022-11-26T07:14:21.310Z,10.13
2022-11-26T07:16:47.489Z,8.82
2022-11-26T07:19:13.619Z,8.98
2022-11-26T07:21:39.757Z,9.95
2022-11-26T07:24:05.927Z,10.35
2022-11-26T07:26:32.152Z,10.50
2022-11-26T07:28:59.282Z,10.57
2022-11-26T07:31:25.521Z,10.27
2022-11-26T07:33:54.767Z,11.23
2022-11-26T07:36:20.932Z,11.50
2022-11-26T07:38:47.105Z,11.57
2022-11-26T07:41:13.263Z,10.43
2022-11-26T07:43:39.402Z,11.02
2022-11-26T07:46:05.600Z,10.95
2022-11-26T07:48:31.759Z,10.88
2022-11-26T07:50:57.913Z,11.45
2022-11-26T07:53:24.050Z,9.52
2022-11-26T07:55:50.256Z,9.85
2022-11-26T07:58:16.392Z,10.57
2022-11-26T08:00:42.617Z,10.90
2022-11-26T08:03:08.832Z,10.93
2022-11-26T08:05:36.021Z,11.93
2022-11-26T08:08:02.316Z,11.18
2022-11-26T08:10:28.509Z,11.95
2022-11-26T08:12:54.682Z,10.55
2022-11-26T08:15:20.831Z,9.95
2022-11-26T08:17:46.978Z,10.57
2022-11-26T08:20:13.109Z,7.85
2022-11-26T08:22:39.236Z,8.05
2022-11-26T08:25:05.418Z,9.13
2022-11-26T08:27:31.577Z,9.75
2022-11-26T08:29:57.701Z,9.77
2022-11-26T08:32:23.929Z,11.45
2022-11-26T08:34:50.107Z,10.25
2022-11-26T08:37:16.233Z,10.45
2022-11-26T08:39:42.368Z,10.30
2022-11-26T08:42:08.553Z,11.43
2022-11-26T08:44:34.739Z,12.18
2022-11-26T08:47:00.863Z,12.15
2022-11-26T08:49:27.177Z,10.73
2022-11-26T08:51:53.377Z,10.73
2022-11-26T08:54:19.576Z,10.57
2022-11-26T08:56:45.726Z,11.18
2022-11-26T08:59:11.904Z,10.05
2022-11-26T09:01:38.121Z,8.60
2022-11-26T09:04:04.361Z,8.88
2022-11-26T09:06:30.562Z,8.68
2022-11-26T09:08:56.726Z,8.27
2022-11-26T09:11:22.886Z,8.88
2022-11-26T09:13:49.045Z,8.52
2022-11-26T09:16:15.333Z,9.07
2022-11-26T09:18:41.507Z,8.73
2022-11-26T09:21:07.661Z,6.95
2022-11-26T09:23:33.816Z,9.57
2022-11-26T09:26:00.015Z,9.02
2022-11-26T09:28:26.173Z,9.32
2022-11-26T09:30:52.355Z,9.27
2022-11-26T09:33:18.537Z,9.43
2022-11-26T09:35:44.746Z,10.27
2022-11-26T09:38:10.907Z,9.02
2022-11-26T09:40:37.032Z,9.15
2022-11-26T09:43:03.214Z,9.27
2022-11-26T09:45:29.413Z,9.15
2022-11-26T09:47:55.594Z,8.40
2022-11-26T09:50:21.734Z,7.63
2022-11-26T09:52:47.917Z,8.88
2022-11-26T09:55:14.091Z,8.52
2022-11-26T09:57:40.253Z,7.93
2022-11-26T10:00:09.464Z,9.32
2022-11-26T10:02:35.681Z,7.30
2022-11-26T10:05:01.902Z,8.27
2022-11-26T10:07:28.105Z,8.15
2022-11-26T10:09:54.304Z,8.82
2022-11-26T10:12:26.047Z,8.32
2022-11-26T10:14:52.611Z,8.05
2022-11-26T10:17:18.802Z,8.13
2022-11-26T10:19:44.969Z,8.25
2022-11-26T10:22:11.103Z,8.55
2022-11-26T10:24:37.706Z,8.38
2022-11-26T10:27:04.166Z,7.88
2022-11-26T10:29:30.343Z,8.35
2022-11-26T10:31:56.516Z,10.50
2022-11-26T10:34:22.752Z,9.60
2022-11-26T10:36:48.959Z,9.60
2022-11-26T10:39:15.101Z,9.95
2022-11-26T10:41:41.522Z,10.27
2022-11-26T10:44:07.759Z,9.65
2022-11-26T10:46:33.960Z,8.82
2022-11-26T10:49:00.128Z,10.05
2022-11-26T10:51:26.697Z,8.07
2022-11-26T10:53:52.945Z,7.50
2022-11-26T10:56:19.113Z,8.70
2022-11-26T10:58:45.293Z,8.65
2022-11-26T11:01:11.572Z,9.32
2022-11-26T11:04:06.940Z,9.20
2022-11-26T11:06:23.862Z,8.02
2022-11-26T11:08:50.026Z,9.60
2022-11-26T11:11:16.198Z,10.32
2022-11-26T11:13:42.393Z,8.55
2022-11-26T11:16:08.600Z,8.77
2022-11-26T11:18:34.826Z,8.75
2022-11-26T11:21:00.945Z,7.18
2022-11-26T11:23:45.810Z,8.40
2022-11-26T11:26:13.323Z,8.25
2022-11-26T11:28:39.460Z,7.40
2022-11-26T11:31:05.693Z,5.25
2022-11-26T11:33:31.859Z,5.07
2022-11-26T11:35:58.020Z,6.72
2022-11-26T11:38:24.200Z,7.10
2022-11-26T11:40:50.366Z,6.10
2022-11-26T11:43:16.537Z,7.97
2022-11-26T11:45:42.813Z,7.70
2022-11-26T11:48:09.058Z,8.07
2022-11-26T11:50:35.262Z,7.70
2022-11-26T11:53:01.475Z,7.15
2022-11-26T11:55:27.665Z,6.10
2022-11-26T11:57:53.835Z,8.63
2022-11-26T12:00:20.002Z,7.47
2022-11-26T12:02:46.276Z,6.25
2022-11-26T12:05:12.591Z,5.78
2022-11-26T12:07:48.052Z,5.30
2022-11-26T12:10:14.275Z,6.07
2022-11-26T12:12:40.445Z,6.18
2022-11-26T12:15:06.609Z,5.43
2022-11-26T12:17:33.490Z,4.93
2022-11-26T12:19:59.708Z,5.57
2022-11-26T12:22:25.861Z,5.32
2022-11-26T12:24:52.009Z,5.18
2022-11-26T12:27:18.139Z,5.22
2022-11-26T12:29:44.382Z,5.75
2022-11-26T12:32:11.611Z,4.82
2022-11-26T12:34:38.009Z,6.38
2022-11-26T12:37:06.784Z,4.97
2022-11-26T12:39:32.943Z,6.15
2022-11-26T12:41:59.133Z,4.93
2022-11-26T12:44:25.322Z,4.97
2022-11-26T12:46:51.541Z,5.05
2022-11-26T12:49:17.666Z,4.72
2022-11-26T12:51:43.818Z,5.55
2022-11-26T12:54:10.117Z,5.20
2022-11-26T12:56:36.247Z,4.97
2022-11-26T12:59:02.493Z,5.80
2022-11-26T13:01:28.861Z,6.15
2022-11-26T13:04:08.709Z,7.13
2022-11-26T13:06:41.185Z,6.68
2022-11-26T13:09:07.528Z,7.20
2022-11-26T13:11:33.994Z,6.35
2022-11-26T13:14:00.242Z,7.43
2022-11-26T13:16:26.484Z,7.38
2022-11-26T13:18:52.653Z,7.25
2022-11-26T13:21:18.837Z,7.20
2022-11-26T13:23:45.012Z,6.63
2022-11-26T13:26:11.227Z,7.30
2022-11-26T13:28:37.357Z,5.20
2022-11-26T13:31:03.534Z,6.53
2022-11-26T13:33:29.661Z,6.15
2022-11-26T13:35:55.807Z,5.70
2022-11-26T13:38:21.983Z,5.38
2022-11-26T13:40:48.141Z,4.85
2022-11-26T13:43:14.304Z,5.07
2022-11-26T13:45:40.453Z,4.65
2022-11-26T13:48:06.817Z,5.10
2022-11-26T13:50:33.012Z,3.88
2022-11-26T13:52:59.191Z,3.88
2022-11-26T13:55:25.393Z,4.18
2022-11-26T13:57:51.540Z,4.40
2022-11-26T14:00:17.768Z,4.25
2022-11-26T14:02:44.030Z,4.63
2022-11-26T14:05:10.263Z,5.07
2022-11-26T14:07:36.548Z,4.45
2022-11-26T14:10:02.755Z,5.20
2022-11-26T14:12:29.048Z,4.13
2022-11-26T14:14:55.249Z,3.85
2022-11-26T14:17:21.441Z,4.40
2022-11-26T14:19:47.917Z,4.78
2022-11-26T14:22:14.088Z,4.10
2022-11-26T14:24:40.463Z,4.95
2022-11-26T14:27:06.678Z,4.20
2022-11-26T14:29:32.866Z,4.45
2022-11-26T14:31:58.995Z,4.97
2022-11-26T14:34:25.473Z,4.57
2022-11-26T14:36:51.665Z,5.30
2022-11-26T14:39:17.826Z,4.95
2022-11-26T14:41:44.027Z,4.15
2022-11-26T14:44:10.144Z,3.92
2022-11-26T14:46:36.278Z,4.68
2022-11-26T14:49:02.482Z,9.02
2022-11-26T14:51:28.666Z,4.40
2022-11-26T14:53:54.835Z,4.40
2022-11-26T14:59:11.272Z,11.68
2022-11-26T15:01:37.448Z,8.48
2022-11-26T15:04:03.615Z,5.50
2022-11-26T15:06:29.816Z,5.57
2022-11-26T15:08:55.948Z,19.45
2022-11-26T15:11:22.497Z,9.93
2022-11-26T15:13:48.664Z,12.85
2022-11-26T15:16:14.927Z,10.88
2022-11-26T15:18:41.126Z,10.05
2022-11-26T15:21:07.245Z,11.00
2022-11-26T15:23:33.442Z,7.05
2022-11-26T15:25:59.631Z,8.10
2022-11-26T15:28:25.774Z,7.57
2022-11-26T15:30:52.037Z,6.43
2022-11-26T15:33:18.300Z,6.10
2022-11-26T15:35:44.489Z,7.82
2022-11-26T15:38:10.697Z,8.35
2022-11-26T15:40:36.895Z,9.02
2022-11-26T15:43:03.049Z,8.40
2022-11-26T15:45:29.253Z,10.30
2022-11-26T15:47:55.419Z,10.40
2022-11-26T15:50:21.580Z,8.38
2022-11-26T15:52:47.760Z,7.82
2022-11-26T15:55:14.094Z,5.75
2022-11-26T15:57:40.551Z,5.97
2022-11-26T16:00:06.741Z,5.88
2022-11-26T16:02:32.958Z,5.18
2022-11-26T16:04:59.142Z,5.13
2022-11-26T16:07:25.375Z,5.68
2022-11-26T16:09:51.567Z,5.13
2022-11-26T16:12:17.672Z,4.63
2022-11-26T16:14:43.861Z,5.03
2022-11-26T16:17:10.039Z,4.95
2022-11-26T16:19:36.548Z,5.55
2022-11-26T16:22:02.998Z,5.30
2022-11-26T16:24:29.253Z,5.68
2022-11-26T16:26:55.399Z,5.32
2022-11-26T16:29:21.626Z,5.15
2022-11-26T16:31:47.805Z,5.50
2022-11-26T16:34:13.936Z,4.65
2022-11-26T16:36:40.104Z,5.22
2022-11-26T16:39:06.239Z,5.30
2022-11-26T16:41:32.368Z,4.90
2022-11-26T16:43:58.806Z,5.20
2022-11-26T16:46:25.047Z,6.70
2022-11-26T16:48:51.244Z,6.07
2022-11-26T16:51:17.464Z,6.07
2022-11-26T16:53:43.699Z,6.65
2022-11-26T16:56:09.867Z,7.13
2022-11-26T16:58:36.050Z,6.72
2022-11-26T17:01:02.232Z,6.85
2022-11-26T17:03:28.490Z,6.03
2022-11-26T17:05:54.743Z,6.43
2022-11-26T17:08:20.917Z,6.68
2022-11-26T17:10:47.142Z,6.32
2022-11-26T17:13:13.281Z,7.93
2022-11-26T17:15:39.430Z,6.80
2022-11-26T17:18:05.690Z,7.35
2022-11-26T17:20:31.892Z,6.82
2022-11-26T17:22:58.031Z,8.13
2022-11-26T17:25:24.177Z,9.02
2022-11-26T17:27:50.313Z,10.82
2022-11-26T17:30:16.505Z,10.25
2022-11-26T17:32:42.865Z,9.88
2022-11-26T17:35:09.053Z,8.60
2022-11-26T17:37:35.195Z,9.20
2022-11-26T17:40:01.461Z,13.00
2022-11-26T17:42:29.110Z,9.18
2022-11-26T17:44:58.446Z,7.20
2022-11-26T17:47:24.658Z,7.07
2022-11-26T17:49:50.833Z,6.35
2022-11-26T17:52:17.001Z,7.68
2022-11-26T17:54:43.118Z,9.27
2022-11-26T17:57:09.251Z,10.07
2022-11-26T17:59:35.440Z,15.30
2022-11-26T18:02:01.662Z,21.45
2022-11-26T18:04:27.838Z,24.70
2022-11-26T18:06:53.966Z,18.13
2022-11-26T18:09:20.198Z,13.98
2022-11-26T18:11:46.380Z,11.65
2022-11-26T18:14:12.570Z,10.38
2022-11-26T18:16:38.775Z,8.73
2022-11-26T18:19:04.981Z,12.23
2022-11-26T18:21:31.116Z,19.40
2022-11-26T18:23:57.278Z,22.80
2022-11-26T18:26:23.414Z,12.07
2022-11-26T18:28:49.560Z,13.70
2022-11-26T18:31:15.776Z,12.63
2022-11-26T18:33:41.998Z,9.88
2022-11-26T18:36:08.200Z,10.75
2022-11-26T18:38:34.358Z,22.55
2022-11-26T18:41:00.552Z,22.95
2022-11-26T18:43:26.731Z,21.92
2022-11-26T18:45:52.929Z,20.38
2022-11-26T18:48:19.082Z,11.43
2022-11-26T18:50:45.231Z,11.32
2022-11-26T18:53:11.397Z,13.85
2022-11-26T18:55:37.578Z,11.10
2022-11-26T18:58:07.847Z,12.15
2022-11-26T19:00:34.392Z,9.63
2022-11-26T19:03:00.602Z,10.95
2022-11-26T19:05:26.767Z,8.75
2022-11-26T19:07:53.048Z,8.68
2022-11-26T19:10:19.308Z,9.90
2022-11-26T19:12:45.491Z,7.60
2022-11-26T19:15:11.683Z,7.57
2022-11-26T19:17:37.837Z,8.02
2022-11-26T19:20:04.018Z,8.00
2022-11-26T19:22:30.161Z,7.93
2022-11-26T19:24:56.347Z,8.60
2022-11-26T19:27:22.481Z,10.35
2022-11-26T19:29:48.696Z,14.05
2022-11-26T19:32:14.839Z,12.18
2022-11-26T19:34:41.010Z,11.23
2022-11-26T19:37:07.156Z,12.48
2022-11-26T19:39:33.317Z,11.05
2022-11-26T19:41:59.454Z,11.10
2022-11-26T19:44:25.643Z,11.07
2022-11-26T19:46:51.824Z,12.75
2022-11-26T19:49:18.032Z,10.23
2022-11-26T19:51:44.224Z,9.93
2022-11-26T19:54:10.422Z,12.35
2022-11-26T19:56:36.578Z,11.48
2022-11-26T19:59:02.775Z,11.85
2022-11-26T20:01:28.998Z,11.18
2022-11-26T20:03:55.199Z,11.52
2022-11-26T20:06:21.378Z,11.90
2022-11-26T20:08:47.589Z,13.07
2022-11-26T20:11:13.780Z,13.20
2022-11-26T20:13:39.953Z,12.05
2022-11-26T20:16:06.102Z,12.43
2022-11-26T20:18:32.272Z,11.57
2022-11-26T20:20:58.499Z,11.60
2022-11-26T20:23:24.672Z,13.60
2022-11-26T20:25:50.809Z,12.00
2022-11-26T20:28:16.999Z,13.25
2022-11-26T20:30:43.278Z,14.60
2022-11-26T20:33:09.466Z,13.65
2022-11-26T20:35:35.595Z,12.27
2022-11-26T20:38:01.804Z,13.52
2022-11-26T20:40:27.981Z,12.18
2022-11-26T20:42:54.140Z,11.63
2022-11-26T20:45:20.308Z,12.32
2022-11-26T20:47:46.472Z,12.35
2022-11-26T20:50:12.650Z,10.77
2022-11-26T20:52:38.779Z,11.45
2022-11-26T20:55:04.972Z,11.07
2022-11-26T20:57:31.172Z,11.40
2022-11-26T20:59:57.346Z,10.48
2022-11-26T21:02:23.559Z,9.75
2022-11-26T21:04:49.711Z,9.90
2022-11-26T21:07:15.962Z,9.13
2022-11-26T21:09:42.264Z,9.80
2022-11-26T21:12:08.497Z,9.27
2022-11-26T21:14:34.662Z,9.95
2022-11-26T21:17:00.946Z,9.73
2022-11-26T21:19:27.114Z,9.73
2022-11-26T21:21:53.305Z,8.23
2022-11-26T21:24:19.454Z,9.05
2022-11-26T21:26:45.610Z,8.23
2022-11-26T21:29:11.789Z,9.45
2022-11-26T21:31:37.935Z,9.82
2022-11-26T21:34:04.132Z,8.85
2022-11-26T21:36:30.367Z,9.00
2022-11-26T21:38:56.564Z,10.52
2022-11-26T21:41:22.685Z,42.30
2022-11-26T21:43:48.836Z,12.80
2022-11-26T21:46:15.162Z,10.35
2022-11-26T21:48:41.435Z,9.23
2022-11-26T21:51:07.602Z,9.52
2022-11-26T21:53:33.718Z,9.63
2022-11-26T21:55:59.870Z,9.07
2022-11-26T21:58:26.045Z,8.65
2022-11-26T22:00:52.177Z,10.88
2022-11-26T22:03:18.327Z,7.63
2022-11-26T22:05:44.517Z,8.88
2022-11-26T22:08:10.783Z,8.77
2022-11-26T22:10:36.923Z,10.10
2022-11-26T22:13:03.074Z,9.85
2022-11-26T22:15:29.211Z,9.65
2022-11-26T22:17:55.395Z,9.93
2022-11-26T22:20:21.596Z,10.55
2022-11-26T22:22:47.773Z,10.05
2022-11-26T22:25:13.974Z,8.95
2022-11-26T22:27:40.149Z,9.85
2022-11-26T22:30:06.316Z,9.75
2022-11-26T22:32:32.481Z,9.10
2022-11-26T22:34:58.648Z,10.88
2022-11-26T22:37:24.782Z,11.98
2022-11-26T22:39:53.842Z,9.88
2022-11-26T22:42:20.259Z,9.27
2022-11-26T22:44:46.438Z,9.98
2022-11-26T22:47:12.621Z,9.85
2022-11-26T22:49:38.933Z,9.82
2022-11-26T22:52:05.209Z,9.98
2022-11-26T22:54:31.377Z,10.77
2022-11-26T22:56:57.583Z,10.52
2022-11-26T22:59:23.715Z,10.98
2022-11-26T23:01:49.862Z,11.38
2022-11-26T23:04:16.057Z,11.65
2022-11-26T23:06:42.185Z,12.15
2022-11-26T23:09:08.351Z,11.82
2022-11-26T23:11:34.539Z,10.95
2022-11-26T23:14:00.665Z,11.05
2022-11-26T23:16:26.914Z,10.35
2022-11-26T23:18:53.162Z,11.25
2022-11-26T23:21:19.281Z,10.13
2022-11-26T23:23:45.444Z,10.52
2022-11-26T23:26:11.568Z,11.45
2022-11-26T23:28:37.690Z,10.60
2022-11-26T23:31:03.914Z,9.35
2022-11-26T23:33:30.085Z,8.73
2022-11-26T23:35:56.257Z,8.90
2022-11-26T23:38:22.430Z,9.80
2022-11-26T23:40:48.545Z,9.40
2022-11-26T23:43:14.701Z,10.65
2022-11-26T23:45:40.864Z,11.50
2022-11-26T23:48:06.993Z,10.30
2022-11-26T23:50:33.171Z,11.35
2022-11-26T23:53:01.293Z,12.88
2022-11-26T23:55:27.424Z,12.18
2022-11-26T23:57:53.602Z,14.60
